createdAt,value
2022-11-02T00:01:24.714Z,13.51
2022-11-02T00:06:26.708Z,13.47
2022-11-02T00:11:28.531Z,13.43
2022-11-02T00:16:31.567Z,13.39
2022-11-02T00:21:35.033Z,13.36
2022-11-02T00:26:38.574Z,13.31
2022-11-02T00:31:40.582Z,13.31
2022-11-02T00:36:42.708Z,13.27
2022-11-02T00:41:44.802Z,13.24
2022-11-02T00:46:46.753Z,13.20
2022-11-02T00:51:48.946Z,13.20
2022-11-02T00:56:51.753Z,13.17
2022-11-02T01:01:53.926Z,13.15
2022-11-02T01:06:55.821Z,13.13
2022-11-02T01:11:57.781Z,13.11
2022-11-02T01:16:59.694Z,13.06
2022-11-02T01:22:01.644Z,13.04
2022-11-02T01:27:03.636Z,13.02
2022-11-02T01:32:05.935Z,12.95
2022-11-02T01:37:07.814Z,12.82
2022-11-02T01:42:36.219Z,12.68
2022-11-02T01:47:41.097Z,12.52
2022-11-02T01:52:43.332Z,12.39
2022-11-02T01:57:49.375Z,12.25
2022-11-02T02:02:58.029Z,12.17
2022-11-02T02:08:03.505Z,12.09
2022-11-02T02:13:07.804Z,12.04
2022-11-02T02:18:22.007Z,12.10
2022-11-02T02:23:32.582Z,12.15
2022-11-02T02:28:40.436Z,12.19
2022-11-02T02:33:44.850Z,12.23
2022-11-02T02:38:57.064Z,12.19
2022-11-02T02:44:01.215Z,12.23
2022-11-02T02:49:06.590Z,12.28
2022-11-02T02:54:14.061Z,12.30
2022-11-02T02:59:26.071Z,12.30
2022-11-02T03:04:29.933Z,12.30
2022-11-02T03:09:31.785Z,12.33
2022-11-02T03:14:47.003Z,12.36
2022-11-02T03:20:03.390Z,12.36
2022-11-02T03:25:19.807Z,12.30
2022-11-02T03:30:29.062Z,12.25
2022-11-02T03:35:55.794Z,12.22
2022-11-02T03:41:01.477Z,12.18
2022-11-02T03:46:08.807Z,12.08
2022-11-02T03:51:14.884Z,11.97
2022-11-02T03:56:33.893Z,11.87
2022-11-02T04:01:54.064Z,11.81
2022-11-02T04:06:58.244Z,11.75
2022-11-02T04:12:20.210Z,11.68
2022-11-02T04:17:41.200Z,11.58
2022-11-02T04:23:05.939Z,11.50
2022-11-02T04:28:09.616Z,11.45
2022-11-02T04:33:35.811Z,11.42
2022-11-02T04:38:44.344Z,11.36
2022-11-02T04:44:07.355Z,11.32
2022-11-02T04:49:11.320Z,11.25
2022-11-02T04:54:14.219Z,11.20
2022-11-02T04:59:16.612Z,11.15
2022-11-02T05:04:18.619Z,11.11
2022-11-02T05:09:22.990Z,11.06
2022-11-02T05:14:25.526Z,11.00
2022-11-02T05:19:27.956Z,10.96
2022-11-02T05:24:29.947Z,10.92
2022-11-02T05:29:32.671Z,10.87
2022-11-02T05:34:34.695Z,10.82
2022-11-02T05:39:37.544Z,10.79
2022-11-02T05:44:39.557Z,10.77
2022-11-02T05:49:41.650Z,10.75
2022-11-02T05:54:43.833Z,10.72
2022-11-02T05:59:48.392Z,10.67
2022-11-02T06:04:51.399Z,10.63
2022-11-02T06:09:53.356Z,10.61
2022-11-02T06:14:55.244Z,10.59
2022-11-02T06:19:56.993Z,10.61
2022-11-02T06:24:58.804Z,10.66
2022-11-02T06:30:01.053Z,10.75
2022-11-02T06:35:02.922Z,10.96
2022-11-02T06:40:06.062Z,11.20
2022-11-02T06:45:08.752Z,11.44
2022-11-02T06:50:11.092Z,11.64
2022-11-02T06:55:15.548Z,11.82
2022-11-02T07:00:21.005Z,11.98
2022-11-02T07:05:26.633Z,12.10
2022-11-02T07:10:29.361Z,12.13
2022-11-02T07:15:32.081Z,12.14
2022-11-02T07:20:35.349Z,12.13
2022-11-02T07:25:37.703Z,12.15
2022-11-02T07:30:39.713Z,12.21
2022-11-02T07:35:43.071Z,12.33
2022-11-02T07:40:49.532Z,12.45
2022-11-02T07:45:51.399Z,12.57
2022-11-02T07:50:53.483Z,12.71
2022-11-02T07:55:55.539Z,12.81
2022-11-02T08:01:00.038Z,12.90
2022-11-02T08:06:05.069Z,13.00
2022-11-02T08:11:08.773Z,13.09
2022-11-02T08:16:10.735Z,13.18
2022-11-02T08:21:12.822Z,13.26
2022-11-02T08:26:14.919Z,13.35
2022-11-02T08:31:17.823Z,13.45
2022-11-02T08:36:19.809Z,13.51
2022-11-02T08:41:21.794Z,13.62
2022-11-02T08:46:23.693Z,13.73
2022-11-02T08:51:25.659Z,13.80
2022-11-02T08:56:27.722Z,13.90
2022-11-02T09:01:29.624Z,14.00
2022-11-02T09:06:31.800Z,14.08
2022-11-02T09:11:33.781Z,14.16
2022-11-02T09:16:41.037Z,14.24
2022-11-02T09:21:44.093Z,14.32
2022-11-02T09:26:46.146Z,14.41
2022-11-02T09:31:49.070Z,14.50
2022-11-02T09:36:50.932Z,14.53
2022-11-02T09:42:07.891Z,14.56
2022-11-02T09:52:38.569Z,14.48
2022-11-02T09:57:45.766Z,14.46
2022-11-02T10:03:01.971Z,14.46
2022-11-02T10:08:22.182Z,14.48
2022-11-02T10:13:33.026Z,14.50
2022-11-02T10:18:37.064Z,14.43
2022-11-02T10:23:42.436Z,14.38
2022-11-02T10:28:48.770Z,14.38
2022-11-02T10:33:52.928Z,14.45
2022-11-02T10:39:33.364Z,14.56
2022-11-02T10:44:41.026Z,14.65
2022-11-02T10:49:45.753Z,14.69
2022-11-02T10:54:51.665Z,14.71
2022-11-02T11:00:24.113Z,14.73
2022-11-02T11:05:26.107Z,14.73
2022-11-02T11:10:29.117Z,14.69
2022-11-02T11:15:50.167Z,14.68
2022-11-02T11:20:56.391Z,14.74
2022-11-02T11:26:07.142Z,14.76
2022-11-02T11:31:10.856Z,14.80
2022-11-02T11:36:33.438Z,14.87
2022-11-02T11:41:41.699Z,14.99
2022-11-02T11:46:50.351Z,15.05
2022-11-02T11:51:55.619Z,15.02
2022-11-02T11:57:16.643Z,14.98
2022-11-02T12:02:34.886Z,14.85
2022-11-02T12:08:10.079Z,14.70
2022-11-02T12:13:17.834Z,14.58
2022-11-02T12:18:36.836Z,14.57
2022-11-02T12:24:00.494Z,14.63
2022-11-02T12:29:20.402Z,14.75
2022-11-02T12:34:31.613Z,14.77
2022-11-02T12:40:15.555Z,14.75
2022-11-02T12:45:34.814Z,14.74
2022-11-02T12:51:07.186Z,14.79
2022-11-02T12:56:16.856Z,14.86
2022-11-02T13:01:24.600Z,14.94
2022-11-02T13:06:35.167Z,14.96
2022-11-02T13:11:48.895Z,14.99
2022-11-02T13:17:22.556Z,14.99
2022-11-02T13:22:33.023Z,14.98
2022-11-02T13:27:39.281Z,14.98
2022-11-02T13:33:05.122Z,14.94
2022-11-02T13:38:13.381Z,14.85
2022-11-02T13:43:57.279Z,14.85
2022-11-02T13:49:06.006Z,14.85
2022-11-02T13:54:14.589Z,14.84
2022-11-02T13:59:28.718Z,14.81
2022-11-02T14:04:39.385Z,14.76
2022-11-02T14:09:44.746Z,14.70
2022-11-02T14:15:06.812Z,14.65
2022-11-02T14:20:38.270Z,14.60
2022-11-02T14:25:46.020Z,14.56
2022-11-02T14:30:58.405Z,14.55
2022-11-02T14:36:39.114Z,14.50
2022-11-02T14:41:49.836Z,14.46
2022-11-02T14:46:53.569Z,14.41
2022-11-02T14:52:21.024Z,14.37
2022-11-02T14:57:36.202Z,14.32
2022-11-02T15:02:43.109Z,14.26
2022-11-02T15:07:53.618Z,14.21
2022-11-02T15:13:18.820Z,14.14
2022-11-02T15:18:23.002Z,14.07
2022-11-02T15:23:31.717Z,14.00
2022-11-02T15:28:34.991Z,13.94
2022-11-02T15:33:46.397Z,13.86
2022-11-02T15:38:51.408Z,13.77
2022-11-02T15:44:27.639Z,13.66
2022-11-02T15:49:41.748Z,13.55
2022-11-02T15:54:51.713Z,13.47
2022-11-02T16:00:07.311Z,13.41
2022-11-02T16:05:20.947Z,13.37
2022-11-02T16:10:34.721Z,13.35
2022-11-02T16:15:36.761Z,13.34
2022-11-02T16:20:40.306Z,13.32
2022-11-02T16:25:49.216Z,13.28
2022-11-02T16:31:10.944Z,13.24
2022-11-02T16:36:24.169Z,13.20
2022-11-02T16:41:27.361Z,13.16
2022-11-02T16:46:36.054Z,13.07
2022-11-02T16:51:38.383Z,12.94
2022-11-02T16:56:40.247Z,12.87
2022-11-02T17:01:43.798Z,12.80
2022-11-02T17:06:48.027Z,12.70
2022-11-02T17:11:51.097Z,12.57
2022-11-02T17:17:25.229Z,12.46
2022-11-02T17:22:29.195Z,12.37
2022-11-02T17:27:37.693Z,12.27
2022-11-02T17:32:43.424Z,12.18
2022-11-02T17:37:45.782Z,12.13
2022-11-02T17:42:59.759Z,12.05
2022-11-02T17:48:02.465Z,11.99
2022-11-02T17:53:06.152Z,11.92
2022-11-02T17:58:08.473Z,11.86
2022-11-02T18:03:15.887Z,11.85
2022-11-02T18:08:18.328Z,11.85
2022-11-02T18:13:22.896Z,11.86
2022-11-02T18:18:24.803Z,11.88
2022-11-02T18:23:26.650Z,11.88
2022-11-02T18:28:28.564Z,11.88
2022-11-02T18:33:30.398Z,11.88
2022-11-02T18:38:32.435Z,11.91
2022-11-02T18:43:34.315Z,11.96
2022-11-02T18:48:36.125Z,11.97
2022-11-02T18:53:38.399Z,11.99
2022-11-02T18:58:40.561Z,12.00
2022-11-02T19:03:42.638Z,11.99
2022-11-02T19:09:02.972Z,11.98
2022-11-02T19:14:05.212Z,11.98
2022-11-02T19:19:06.987Z,11.96
2022-11-02T19:24:09.213Z,11.94
2022-11-02T19:29:10.943Z,11.91
2022-11-02T19:34:13.602Z,11.85
2022-11-02T19:39:15.352Z,11.76
2022-11-02T19:44:17.250Z,11.66
2022-11-02T19:49:19.042Z,11.59
2022-11-02T19:54:20.924Z,11.53
2022-11-02T19:59:22.745Z,11.51
2022-11-02T20:04:24.583Z,11.45
2022-11-02T20:09:26.693Z,11.38
2022-11-02T20:14:28.574Z,11.31
2022-11-02T20:19:30.431Z,11.24
2022-11-02T20:24:32.581Z,11.19
2022-11-02T20:29:34.487Z,11.15
2022-11-02T20:34:36.895Z,11.11
2022-11-02T20:39:38.706Z,11.08
2022-11-02T20:44:40.677Z,11.09
2022-11-02T20:49:50.634Z,11.12
2022-11-02T20:54:53.012Z,11.11
2022-11-02T20:59:56.107Z,11.09
2022-11-02T21:04:58.189Z,11.05
2022-11-02T21:10:00.186Z,10.99
2022-11-02T21:15:02.488Z,10.97
2022-11-02T21:25:26.587Z,10.98
2022-11-02T21:30:31.148Z,11.02
2022-11-02T21:35:33.085Z,11.01
2022-11-02T21:40:34.991Z,10.97
2022-11-02T21:45:38.192Z,10.97
2022-11-02T21:50:40.207Z,10.97
2022-11-02T21:55:42.032Z,10.93
2022-11-02T22:01:02.496Z,10.85
2022-11-02T22:06:04.587Z,10.80
2022-11-02T22:11:11.823Z,10.73
2022-11-02T22:16:21.949Z,10.67
2022-11-02T22:21:25.877Z,10.60
2022-11-02T22:26:30.146Z,10.51
2022-11-02T22:31:34.442Z,10.44
2022-11-02T22:36:38.757Z,10.37
2022-11-02T22:41:43.156Z,10.29
2022-11-02T22:46:47.821Z,10.22
2022-11-02T22:51:50.726Z,10.17
2022-11-02T22:56:52.513Z,10.11
2022-11-02T23:01:54.773Z,10.06
2022-11-02T23:06:56.617Z,10.06
2022-11-02T23:11:58.383Z,10.06
2022-11-02T23:17:00.165Z,10.04
2022-11-02T23:22:26.103Z,10.01
2022-11-02T23:27:28.666Z,9.96
2022-11-02T23:32:30.997Z,9.94
2022-11-02T23:37:32.927Z,9.92
2022-11-02T23:42:34.692Z,9.90
2022-11-02T23:47:55.265Z,9.90
2022-11-02T23:53:15.534Z,9.92
2022-11-02T23:58:17.527Z,9.92
